x

Stonewall Bank - 20nm West Of Newport, Or (46050) Wave Buoy

6:50pm - Mon 28th Jul 2014 All times are PDT. -7 hours from GMT.

  • Sig Wave height 4.6ft
  • Swell Direction
  • Peak Period 6s
  • Average Period 5s
  • Wind
    16mph, 18mph gusts
  • Sea Temp 55°f
  • Air Temp 58°f
  • Sea Pressure 1018.9mb
  • Stonewall Bank - 20nm West Of Newport, Or
  • Stonewall Bank - 20nm West Of Newport, Or

More Historic Weather Station data

Upgrade to MSW Pro to gain access to the past 30 days of data for over 8000 Wavebouys and Weather Stations around the globe.

Join Pro

Comparision Forecast

View Surf forecast
   
Mon 07/28 6:50pm 4.5ft 6s 5s 16 18 mph 1018.9mb 55f 58f
5:50pm 4.5ft 6s 5s 13 18 mph 1019mb 55f 58f
4:50pm 4.5ft 6s 5s 16 20 mph 1019.3mb 55f 58f
3:50pm 5ft 6s 5s 13 16 mph 1019.6mb 56f 59f
2:50pm 5ft 6s 5s 13 18 mph 1019.8mb 57f 59f
1:50pm 4.5ft 6s 5s 13 18 mph 1019.7mb 57f 59f
12:50pm 5ft 6s 5s 13 18 mph 1019.9mb 57f 58f
11:50am 5ft 6s 5s 13 18 mph 1020.1mb 56f 58f
10:50am 5.5ft 6s 5s 13 18 mph 1019.8mb 56f 58f
9:50am 5ft 6s 5s 13 18 mph 1019.8mb 55f 58f
8:50am 5ft 6s 5s 16 20 mph 1019.8mb 54f 58f
7:50am 5ft 8s 5s 13 18 mph 1019.7mb 53f 58f
6:50am 5.5ft 8s 5s 13 18 mph 1019.6mb 52f 58f
5:50am 5ft 7s 5s 18 22 mph 1019mb 52f 59f
4:50am 5.5ft 6s 5s 13
mph
1018.8mb 53f 58f
3:50am 6ft 6s 5s 13 16 mph 1018.7mb 54f 59f
2:50am 6.5ft 7s 5s 16 18 mph 1018.5mb 54f 59f
1:50am 6ft 6s 5s 18 20 mph 1018.5mb 55f 59f
12:50am 6ft 6s 5s 18 25 mph 1018.7mb 56f 59f
Sun 07/27 11:50pm 6ft 7s 5s 18 20 mph 1018.8mb 56f 60f
10:50pm 6.5ft 6s 5s 18 20 mph 1018.8mb 56f 60f
9:50pm 6.5ft 7s 5s 18 20 mph 1018.8mb 55f 60f
8:50pm 6ft 7s 5s 16 18 mph 1018.7mb 55f 60f
7:50pm 6ft 6s 5s 16 18 mph 1018.7mb 56f 60f
6:50pm 6ft 7s 5s 16 18 mph 1018.7mb 56f 60f
5:50pm 6ft 6s 5s 16 18 mph 1018.9mb 56f 60f
4:50pm 6ft 6s 5s 16 20 mph 1018.9mb 56f 60f
3:50pm 6ft 7s 5s 16 18 mph 1019mb 56f 60f
2:50pm 5.5ft 6s 5s 16 20 mph 1019.3mb 56f 60f
1:50pm 6ft 6s 5s 16 20 mph 1019.2mb 55f 59f
12:50pm 6ft 6s 5s 13 16 mph 1019.7mb 55f 59f
11:50am 5.5ft 6s 5s 16 18 mph 1019.8mb 54f 59f
10:50am 5ft 6s 5s 16 18 mph 1019.9mb 54f 59f
9:50am 5ft 6s 5s 16 20 mph 1020mb 54f 58f
8:50am 5.5ft 6s 5s 18 20 mph 1019.9mb 54f 58f
7:50am 5ft 6s 5s 18 20 mph 1020mb 54f 58f
6:50am 5ft 6s 5s 16 20 mph 1020.1mb 54f 58f
5:50am 5ft 6s 5s 16 20 mph 1020mb 54f 58f
4:50am 6ft 6s 5s 18 20 mph 1019.9mb 55f 59f
3:50am 5.5ft 6s 5s 18 22 mph 1019.7mb 55f 59f
2:50am 6ft 6s 5s 18 20 mph 1019.8mb 56f 59f
1:50am 5.5ft 6s 5s 18 20 mph 1019.9mb 57f 59f
12:50am 6ft 6s 5s 18 20 mph 1020mb 57f 60f
Sat 07/26 11:50pm 5.5ft 6s 5s 18 20 mph 1020.3mb 58f 60f
10:50pm 5ft 6s 5s 18 25 mph 1020.4mb 58f 60f
9:50pm 5.5ft 6s 5s 16 20 mph 1020.4mb 58f 60f
8:50pm 5ft 5s 5s 18 22 mph 1020mb 58f 61f
7:50pm 5ft 5s 5s 18 22 mph 1020mb 59f 61f
6:50pm 4.5ft 5s 4s 18 22 mph 1020mb 60f 62f
5:50pm 4.5ft 5s 4s 20 25 mph 1020.2mb 60f 62f
4:50pm 4ft 4s 4s 20 25 mph 1020.6mb 60f 62f
3:50pm 3.5ft 4s 4s 20 22 mph 1020.8mb 60f 62f
2:50pm 3.5ft 4s 4s 18 20 mph 1020.6mb 60f 61f
1:50pm 3ft 4s 4s 16 18 mph 1020.8mb 60f 61f
12:50pm 3ft 7s 4s 16 18 mph 1021.3mb 60f 61f
11:50am 3ft 7s 4s 13 18 mph 1021.4mb 60f 61f
10:50am 3ft 7s 4s 13 16 mph 1021.4mb 60f 61f
9:50am 3ft 6s 4s 13 16 mph 1021mb 59f 61f
8:50am 3ft 6s 4s 13 16 mph 1020.9mb 59f 61f
7:50am 3.5ft 6s 4s 13 16 mph 1020.7mb 59f 61f
6:50am 3.5ft 4s 4s 11 13 mph 1020.4mb 59f 60f
5:50am 3.5ft 6s 4s 13 16 mph 1020.1mb 59f 60f
4:50am 3.5ft 7s 4s 13 18 mph 1020mb 59f 61f
3:50am 3.5ft 7s 4s 13 16 mph 1019.9mb 59f 61f
2:50am 3.5ft 4s 4s 13 16 mph 1019.8mb 59f 61f
1:50am 3.5ft 7s 4s 11 13 mph 1019.6mb 60f 61f
12:50am 3.5ft 4s 4s 13 16 mph 1019.8mb 60f 61f
Fri 07/25 11:50pm 3.5ft 8s 4s 13 18 mph 1019.6mb 60f 61f
10:50pm 3.5ft 7s 4s 13 16 mph 1019.8mb 61f 62f
9:50pm 4ft 7s 4s 13 16 mph 1019.7mb 61f 62f
8:50pm 4ft 7s 4s 13 16 mph 1019.4mb 61f 62f
7:50pm 4ft 7s 4s 16 18 mph 1019.2mb 61f 62f
6:50pm 4ft 7s 4s 18 22 mph 1019.3mb 61f 62f
5:50pm 3.5ft 7s 4s 18 22 mph 1019.6mb 62f 62f
4:50pm 3.5ft 7s 4s 18 20 mph 1019.8mb 61f 62f
3:50pm 3.5ft 7s 5s 16 20 mph 1020.1mb 61f 62f
2:50pm 3.5ft 7s 5s 16
mph
1020.4mb 61f 61f
1:50pm 3.5ft 7s 5s 13 16 mph 1020.5mb 60f 61f
12:50pm 3.5ft 7s 5s 11 13 mph 1020.6mb 59f 60f
11:50am 3.5ft 7s 5s 7 11 mph 1020.6mb 58f 60f
10:50am 3.5ft 7s 5s 7 9 mph 1020.8mb 57f 59f
9:50am 3.5ft 8s 5s 4 7 mph 1020.9mb 56f 59f
8:50am 3.5ft 8s 5s 9 11 mph 1021mb 55f 59f
7:50am 4ft 8s 5s 9 13 mph 1020.9mb 55f 59f
6:50am 4.5ft 8s 5s 11 13 mph 1021mb 56f 59f
5:50am 4.5ft 8s 5s 11 13 mph 1021.1mb 56f 59f
4:50am 4.5ft 8s 5s 13 16 mph 1021mb 56f 60f
3:50am 4.5ft 8s 6s 16 18 mph 1020.9mb 57f 60f